Alliance, OH

1:30 AM EDT on October 21, 2014 (GMT -0400)
Youngstown-Warren Regional | Change Station
CLOSE
Current Station
Airport
Location: Youngstown,
Elevation: 1184 ft
Nearby Weather Stations

Elev 1184 ft 41.25 °N, 80.67 °W | Updated 39 minutes ago

Overcast
Overcast
50 °F
Feels Like 50 °F
N
7
Wind Variable Wind from SW

Today
High -- | Low -- °F
--% Chance of Precip.
Yesterday
High -- | Low -- °F
Precip. -- in
7:42 AM 6:35 PM
Waning Crescent, 7% visible
Pressure 29.84 in
Visibility 6.0 miles
Clouds Mostly Cloudy 800 ft
Mostly Cloudy 1300 ft
Overcast 2100 ft
Dew Point 48 °F
Humidity 93%
Rainfall 0.07 in
Snow Depth Not available.
UV 0 out of 12
Pollen .90 out of 12
Air Quality Not available.
Flu Activity Sporadic
METAR KYNG 210451Z 22006KT 6SM -RA BR BKN008 BKN013 OVC021 10/09 A2983 RMK AO2 SLP104 P0007 T01000089 401390061

More Conditions Fewer Conditions

Pressure 29.84 in
Visibility 6.0 miles
Clouds Mostly Cloudy 800 ft
Mostly Cloudy 1300 ft
Overcast 2100 ft
Dew Point 48 °F
Humidity 93%
Rainfall 0.07 in
Snow Depth Not available.
UV 0 out of 12
Pollen .90 out of 12
Air Quality Not available.
Flu Activity Sporadic
METAR KYNG 210451Z 22006KT 6SM -RA BR BKN008 BKN013 OVC021 10/09 A2983 RMK AO2 SLP104 P0007 T01000089 401390061

More Conditions Fewer Conditions

10-Day Weather Forecast

Almanac

Astronomy

Oct. 21, 2014 Rise Set
Actual Time 7:42 AM EDT 6:35 PM EDT
Civil Twilight 7:14 AM EDT 7:02 PM EDT
Nautical Twilight 6:42 AM EDT 7:34 PM EDT
Astronomical Twilight 6:10 AM EDT 8:06 PM EDT
Moon 5:24 AM EDT 5:29 PM EDT
Length of Visible Light 11h 48m
Length of Day
10h 52m
Tomorrow will be 2m 34s shorter.
Waning Crescent, 7% of the Moon is Illuminated
Today
Waning Crescent
Oct 23
New
Oct 30
First Quarter
Nov 6
Full
Nov 14
Last Quarter

Today's Extremes

State Highs State Lows

Community

WunderPhotos

Upload Photos

1,763,612 photos uploaded!

Nearby

Snow Depth

Station Depth Elevation
No new snow has been reported.

Earthquake Activity

City Distance Mag. Time & Date
No recent earthquake activity has been reported nearby.
Minimum magnitude displayed is 2.5.

Coastal Water Temperatures

Place Temperature
No Stations Reporting

Nearby Weather Stations